Time;durP1;ratioP1;P1;durP2;ratioP2;P2;SDS_P1;SDS_P2;PMS_P1;PMS_P2;Temp;Humidity;BMP_temperature;BMP_pressure;BME280_temperature;BME280_humidity;BME280_pressure;Samples;Min_cycle;Max_cycle;Signal;HPM_P1;HPM_P2
2022/01/24 00:00:40;;;;;;;8.50;7.40;;;;;;;0.28;100.00;97320.59;5031910;28;24424;-74
2022/01/24 00:03:07;;;;;;;10.80;8.35;;;;;;;0.51;100.00;97315.53;5030709;28;24430;-75
2022/01/24 00:05:34;;;;;;;11.43;7.80;;;;;;;0.59;100.00;97317.25;5031580;28;25007;-74
2022/01/24 00:08:00;;;;;;;8.02;7.22;;;;;;;0.48;100.00;97317.25;5031281;28;24968;-75
2022/01/24 00:10:28;;;;;;;9.52;8.20;;;;;;;0.32;100.00;97307.84;5031578;28;24941;-75
2022/01/24 00:13:29;;;;;;;10.27;8.15;;;;;;;0.18;100.00;97309.53;5031461;28;24427;-75
2022/01/24 00:16:00;;;;;;;10.10;8.82;;;;;;;0.14;100.00;97302.72;5030928;28;24987;-75
2022/01/24 00:18:31;;;;;;;9.02;8.13;;;;;;;0.12;100.00;97299.34;5031450;28;24813;-75
2022/01/24 00:29:10;;;;;;;10.07;8.80;;;;;;;-0.34;100.00;97284.72;5031259;28;24627;-75
2022/01/24 00:31:37;;;;;;;9.35;8.32;;;;;;;-0.35;100.00;97277.94;5031560;28;24477;-75
2022/01/24 00:34:04;;;;;;;12.05;8.43;;;;;;;-0.43;100.00;97271.97;5031232;28;24424;-74
2022/01/24 00:36:31;;;;;;;8.68;7.68;;;;;;;-0.53;100.00;97275.31;5030697;28;24435;-75
2022/01/24 00:38:57;;;;;;;10.63;8.43;;;;;;;-0.71;100.00;97270.13;5031418;28;24519;-74
2022/01/24 00:41:24;;;;;;;8.68;7.15;;;;;;;-0.83;100.00;97273.44;5031475;28;24426;-75
2022/01/24 00:44:06;;;;;;;7.97;6.67;;;;;;;-0.91;100.00;97270.88;5031493;28;24504;-75
2022/01/24 00:46:39;;;;;;;10.50;6.30;;;;;;;-0.88;100.00;97272.59;5030710;28;24428;-75
2022/01/24 00:49:25;;;;;;;6.35;5.55;;;;;;;-0.83;100.00;97276.00;5031133;28;24980;-74
2022/01/24 00:54:44;;;;;;;10.40;6.00;;;;;;;-0.66;100.00;97266.78;5030998;28;24563;-75
2022/01/24 00:57:11;;;;;;;8.02;5.50;;;;;;;-0.65;100.00;97267.63;5030820;28;24482;-74
2022/01/24 00:59:38;;;;;;;6.03;5.43;;;;;;;-0.70;100.00;97259.09;5031118;28;24945;-74
2022/01/24 01:02:07;;;;;;;5.90;5.30;;;;;;;-0.75;100.00;97272.66;5031408;28;24844;-74
2022/01/24 01:04:43;;;;;;;5.43;4.90;;;;;;;-0.70;100.00;97270.16;5031337;28;24435;-74
2022/01/24 01:07:09;;;;;;;8.68;5.93;;;;;;;-0.58;100.00;97266.81;5031097;28;24427;-74
2022/01/24 01:18:14;;;;;;;5.57;5.03;;;;;;;-1.07;100.00;97254.66;5030637;28;24542;-74
2022/01/24 01:20:58;;;;;;;6.53;5.53;;;;;;;-1.12;100.00;97251.22;5031080;28;24435;-75
2022/01/24 01:23:25;;;;;;;9.20;5.60;;;;;;;-1.11;100.00;97260.56;5030881;28;24435;-75
2022/01/24 01:25:53;;;;;;;5.82;5.22;;;;;;;-1.03;100.00;97258.09;5030640;28;24428;-74
2022/01/24 01:28:20;;;;;;;7.07;5.50;;;;;;;-1.00;100.00;97258.09;5030933;28;24487;-75
2022/01/24 01:30:50;;;;;;;9.07;6.15;;;;;;;-0.99;100.00;97260.66;5031045;28;24431;-74
2022/01/24 01:33:26;;;;;;;7.93;6.35;;;;;;;-0.95;100.00;97258.97;5030972;28;24432;-75
2022/01/24 01:36:05;;;;;;;7.30;6.47;;;;;;;-0.95;100.00;97258.13;5030538;28;24420;-75
2022/01/24 01:52:34;;;;;;;6.78;5.97;;;;;;;-1.29;100.00;97278.25;5049930;28;24442;-76
2022/01/24 01:55:14;;;;;;;7.03;6.27;;;;;;;-1.59;100.00;97281.38;5058225;28;24588;-78
2022/01/24 01:57:40;;;;;;;8.10;6.70;;;;;;;-1.76;100.00;97282.06;5050312;28;24431;-76
2022/01/24 02:00:09;;;;;;;7.00;6.30;;;;;;;-1.76;100.00;97286.28;5050484;28;24427;-76
2022/01/24 02:02:36;;;;;;;7.28;6.50;;;;;;;-1.75;100.00;97282.91;5058884;28;24861;-76
2022/01/24 02:05:05;;;;;;;7.32;6.63;;;;;;;-1.76;100.00;97281.22;5069150;28;24434;-76
2022/01/24 02:07:32;;;;;;;9.43;7.40;;;;;;;-1.64;100.00;97283.84;5069920;28;24426;-76
2022/01/24 02:09:58;;;;;;;8.20;7.28;;;;;;;-1.54;100.00;97279.72;5070287;28;24430;-76
2022/01/24 02:12:27;;;;;;;11.73;7.60;;;;;;;-1.46;100.00;97276.41;5070129;28;24426;-76
2022/01/24 02:14:58;;;;;;;9.65;7.40;;;;;;;-1.39;100.00;97271.38;5070183;28;24854;-76
2022/01/24 02:17:34;;;;;;;8.65;7.70;;;;;;;-1.51;100.00;97272.97;5070225;28;24442;-76
2022/01/24 02:20:12;;;;;;;8.40;7.60;;;;;;;-1.65;100.00;97274.53;5070373;28;24427;-76
2022/01/24 02:22:48;;;;;;;8.48;7.07;;;;;;;-1.57;100.00;97279.69;5070360;28;24518;-76
2022/01/24 02:25:25;;;;;;;10.15;7.75;;;;;;;-1.55;100.00;97278.03;5054817;28;24487;-76
2022/01/24 02:27:58;;;;;;;11.43;8.55;;;;;;;-1.64;100.00;97288.94;5073568;28;24442;-75
2022/01/24 02:30:42;;;;;;;10.13;8.63;;;;;;;-1.66;100.00;97283.00;5073813;28;24425;-76
2022/01/24 02:33:10;;;;;;;9.60;7.85;;;;;;;-1.62;100.00;97279.66;5073471;28;24418;-75
2022/01/24 02:35:37;;;;;;;7.38;6.65;;;;;;;-1.47;100.00;97287.41;5073922;28;24498;-76
2022/01/24 02:38:13;;;;;;;9.48;7.40;;;;;;;-1.47;100.00;97282.31;5073115;28;24431;-76
2022/01/24 02:40:39;;;;;;;8.45;7.55;;;;;;;-1.53;100.00;97283.94;5073741;28;24515;-76
2022/01/24 02:48:22;;;;;;;8.77;7.80;;;;;;;-1.77;100.00;97274.44;5073177;28;24803;-76
2022/01/24 02:48:48;;;;;;;8.40;7.57;;;;;;;-1.88;100.00;97274.31;5072807;28;24454;-76
2022/01/24 02:51:28;;;;;;;12.63;8.33;;;;;;;-1.99;100.00;97268.28;5073274;28;24958;-76
2022/01/24 02:53:56;;;;;;;14.73;10.80;;;;;;;-2.13;100.00;97278.28;5073088;28;24437;-76
2022/01/24 02:56:23;;;;;;;23.92;14.35;;;;;;;-2.20;100.00;97276.50;5064513;28;24423;-76
2022/01/24 02:58:49;;;;;;;80.35;28.70;;;;;;;-2.27;100.00;97272.19;5070120;28;24431;-76
2022/01/24 03:01:16;;;;;;;115.72;35.42;;;;;;;-2.23;100.00;97272.25;5073138;28;24827;-76
2022/01/24 03:03:43;;;;;;;75.38;25.33;;;;;;;-2.21;100.00;97265.50;5072994;28;24484;-76
2022/01/24 03:06:10;;;;;;;46.10;20.33;;;;;;;-2.06;100.00;97269.06;5072699;28;24433;-76
2022/01/24 03:08:38;;;;;;;53.13;18.85;;;;;;;-1.95;100.00;97260.72;5073076;28;24819;-76
2022/01/24 03:11:07;;;;;;;33.97;15.23;;;;;;;-1.90;100.00;97258.22;5072971;28;24441;-76
2022/01/24 03:13:34;;;;;;;39.42;15.10;;;;;;;-2.00;100.00;97252.22;5072607;28;24415;-76
2022/01/24 03:16:03;;;;;;;24.70;11.38;;;;;;;-2.11;100.00;97255.44;5072249;28;24936;-76
2022/01/24 03:18:30;;;;;;;19.35;10.63;;;;;;;-2.08;100.00;97250.41;5072506;28;24784;-75
2022/01/24 03:20:56;;;;;;;21.38;10.80;;;;;;;-2.17;100.00;97250.31;5072427;28;24415;-76
2022/01/24 03:23:25;;;;;;;14.97;9.47;;;;;;;-2.24;100.00;97244.31;5072310;28;24422;-76
2022/01/24 03:25:51;;;;;;;22.65;9.80;;;;;;;-2.31;100.00;97237.47;5071858;28;24419;-75
2022/01/24 03:28:19;;;;;;;19.08;10.95;;;;;;;-2.36;100.00;97234.03;5072427;28;24461;-76
2022/01/24 03:30:46;;;;;;;21.67;10.20;;;;;;;-2.52;100.00;97233.88;5072563;28;24427;-76
2022/01/24 03:33:12;;;;;;;20.45;10.63;;;;;;;-2.64;100.00;97235.38;5068425;28;24481;-76
2022/01/24 03:35:40;;;;;;;19.77;10.65;;;;;;;-2.62;100.00;97237.13;5060339;28;24488;-76
2022/01/24 03:38:07;;;;;;;17.70;9.90;;;;;;;-2.54;100.00;97239.75;5070752;28;24496;-76
2022/01/24 03:40:33;;;;;;;21.98;10.38;;;;;;;-2.35;100.00;97221.38;5072817;28;24422;-76
2022/01/24 03:42:59;;;;;;;25.08;11.82;;;;;;;-2.30;100.00;97224.81;5066443;28;24741;-76
2022/01/24 03:45:39;;;;;;;33.40;14.05;;;;;;;-2.48;100.00;97217.00;5064111;28;24434;-76
2022/01/24 03:48:09;;;;;;;26.20;14.73;;;;;;;-2.46;100.00;97228.84;5069249;28;24425;-76
2022/01/24 03:50:36;;;;;;;20.58;11.40;;;;;;;-2.44;100.00;97222.13;5044810;28;24517;-76
2022/01/24 03:53:04;;;;;;;20.48;11.02;;;;;;;-2.37;100.00;97225.59;5043530;28;24856;-76
2022/01/24 03:55:30;;;;;;;17.63;10.20;;;;;;;-2.33;100.00;97218.88;5043429;28;24454;-76
2022/01/24 03:57:57;;;;;;;13.88;9.18;;;;;;;-2.18;100.00;97219.03;5044958;28;24436;-76
2022/01/24 04:00:23;;;;;;;12.75;7.78;;;;;;;-2.16;100.00;97229.16;5031940;28;24478;-77
2022/01/24 04:02:51;;;;;;;15.18;8.70;;;;;;;-2.14;100.00;97223.28;5031928;28;24420;-77
2022/01/24 04:05:18;;;;;;;7.90;6.53;;;;;;;-2.13;100.00;97222.44;5031765;28;24427;-77
2022/01/24 04:07:44;;;;;;;9.93;7.30;;;;;;;-2.12;100.00;97229.22;5031376;28;24847;-77
2022/01/24 04:10:12;;;;;;;7.22;6.03;;;;;;;-2.24;100.00;97229.09;5031366;28;25011;-78
2022/01/24 04:12:40;;;;;;;8.23;5.97;;;;;;;-2.26;100.00;97228.25;5051273;28;24423;-78
2022/01/24 04:15:25;;;;;;;12.57;6.57;;;;;;;-2.38;100.00;97231.47;5045063;28;24439;-77
2022/01/24 04:18:10;;;;;;;6.57;5.88;;;;;;;-2.33;100.00;97229.00;5042970;28;24493;-77
2022/01/24 04:23:26;;;;;;;7.88;6.07;;;;;;;-2.52;100.00;97216.13;5035360;28;24439;-77
2022/01/24 04:25:52;;;;;;;6.83;6.10;;;;;;;-2.46;100.00;97215.31;5050377;28;24454;-77
2022/01/24 04:28:19;;;;;;;8.55;6.07;;;;;;;-2.39;100.00;97221.31;5051293;28;24510;-77
2022/01/24 04:30:47;;;;;;;6.28;5.07;;;;;;;-2.32;100.00;97223.09;5050980;28;24948;-78
2022/01/24 04:33:15;;;;;;;6.85;5.78;;;;;;;-2.30;100.00;97219.75;5051262;28;24438;-77
2022/01/24 04:35:42;;;;;;;7.13;5.70;;;;;;;-2.30;100.00;97218.88;5051154;28;24411;-77
2022/01/24 04:38:08;;;;;;;8.20;6.10;;;;;;;-2.30;100.00;97216.34;5050545;28;24431;-77
2022/01/24 04:40:34;;;;;;;6.95;5.80;;;;;;;-2.27;100.00;97208.75;5051153;28;24431;-77
2022/01/24 04:43:22;;;;;;;8.27;6.55;;;;;;;-2.20;100.00;97216.44;5050899;28;24435;-77
2022/01/24 04:46:06;;;;;;;7.13;6.32;;;;;;;-2.15;100.00;97223.25;5043923;28;24462;-77
2022/01/24 04:51:33;;;;;;;11.70;7.88;;;;;;;-1.60;100.00;97228.84;5050712;28;24426;-77
2022/01/24 04:56:45;;;;;;;10.07;7.20;;;;;;;-2.42;100.00;97228.88;5024369;28;24485;-77
2022/01/24 04:59:12;;;;;;;8.87;7.63;;;;;;;-2.35;100.00;97226.44;5050799;28;24519;-77
2022/01/24 05:01:38;;;;;;;12.52;9.52;;;;;;;-2.39;100.00;97229.78;5050771;28;24423;-77
2022/01/24 05:04:06;;;;;;;11.07;9.55;;;;;;;-2.39;100.00;97237.38;5050459;28;24959;-77
2022/01/24 05:06:33;;;;;;;11.23;8.50;;;;;;;-2.36;100.00;97237.44;5050431;28;24431;-77
2022/01/24 05:09:00;;;;;;;9.90;8.68;;;;;;;-2.32;100.00;97233.25;5050592;28;24451;-76
2022/01/24 05:11:36;;;;;;;11.60;9.43;;;;;;;-2.27;100.00;97239.22;5050640;28;24423;-76
2022/01/24 05:25:01;;;;;;;7.35;6.65;;;;;;;-2.66;100.00;97242.16;5030203;28;24455;-78
2022/01/24 05:27:27;;;;;;;7.88;6.50;;;;;;;-2.69;100.00;97241.25;5030675;28;24435;-77
2022/01/24 05:29:54;;;;;;;8.25;6.57;;;;;;;-2.58;100.00;97243.09;5030352;28;24487;-76
2022/01/24 05:32:20;;;;;;;10.98;7.20;;;;;;;-2.60;100.00;97244.75;5036224;28;24480;-76
2022/01/24 05:34:48;;;;;;;7.03;6.05;;;;;;;-2.64;100.00;97256.53;5050475;28;24415;-76
2022/01/24 05:37:14;;;;;;;8.43;7.38;;;;;;;-2.62;100.00;97261.63;5049700;28;24832;-77
2022/01/24 05:39:41;;;;;;;7.85;6.95;;;;;;;-2.72;100.00;97265.72;5049997;28;24966;-78
2022/01/24 05:42:08;;;;;;;9.70;7.10;;;;;;;-2.76;100.00;97262.31;5049593;28;24458;-77
2022/01/24 05:44:34;;;;;;;10.07;7.03;;;;;;;-2.61;100.00;97258.25;5050300;28;24419;-77
2022/01/24 05:47:01;;;;;;;8.65;7.72;;;;;;;-2.60;100.00;97253.19;5049178;28;24438;-77
2022/01/24 05:49:27;;;;;;;9.43;7.78;;;;;;;-2.69;100.00;97255.63;5034412;28;24512;-77
2022/01/24 05:51:55;;;;;;;8.77;7.82;;;;;;;-2.66;100.00;97259.91;5049999;28;24970;-77
2022/01/24 05:54:21;;;;;;;9.80;8.80;;;;;;;-2.74;100.00;97258.13;5050017;28;24487;-77
2022/01/24 05:56:48;;;;;;;9.95;8.82;;;;;;;-2.64;100.00;97256.53;5049416;28;24486;-78
2022/01/24 05:59:14;;;;;;;13.25;9.18;;;;;;;-2.58;100.00;97258.31;5049873;28;24423;-77
2022/01/24 06:01:40;;;;;;;10.88;9.18;;;;;;;-2.60;100.00;97249.81;5053686;28;24426;-77
2022/01/24 06:04:07;;;;;;;12.30;9.02;;;;;;;-2.50;100.00;97261.78;5061974;28;24834;-77
2022/01/24 06:06:33;;;;;;;9.55;8.48;;;;;;;-2.48;100.00;97262.66;5050106;28;24482;-77
2022/01/24 06:09:01;;;;;;;11.20;9.65;;;;;;;-2.54;100.00;97265.13;5033860;28;24447;-77
2022/01/24 06:11:28;;;;;;;9.85;8.85;;;;;;;-2.55;100.00;97269.34;5050501;28;24443;-77
2022/01/24 06:13:54;;;;;;;11.10;8.77;;;;;;;-2.46;100.00;97271.13;5053252;28;24443;-78
2022/01/24 06:16:21;;;;;;;11.48;9.50;;;;;;;-2.61;100.00;97273.47;5053120;28;24442;-76
2022/01/24 06:18:47;;;;;;;11.77;10.07;;;;;;;-2.72;100.00;97273.34;5053365;28;24435;-76
2022/01/24 06:21:14;;;;;;;10.77;9.55;;;;;;;-2.64;100.00;97269.22;5053741;28;24816;-76
2022/01/24 06:23:40;;;;;;;11.00;9.43;;;;;;;-2.58;100.00;97271.00;5053247;28;24501;-76
2022/01/24 06:26:10;;;;;;;12.52;9.50;;;;;;;-2.69;100.00;97273.38;5052933;28;24800;-77
2022/01/24 06:28:36;;;;;;;11.27;9.00;;;;;;;-2.72;100.00;97271.66;5053452;28;24918;-74
2022/01/24 06:31:03;;;;;;;12.35;9.38;;;;;;;-2.73;100.00;97280.09;5053349;28;24466;-78
2022/01/24 06:33:29;;;;;;;11.52;9.10;;;;;;;-2.70;100.00;97280.16;5055259;28;24431;-75
2022/01/24 06:35:56;;;;;;;11.82;9.40;;;;;;;-2.71;100.00;97278.44;5054386;28;24498;-76
2022/01/24 06:38:23;;;;;;;11.25;10.07;;;;;;;-2.84;100.00;97274.03;5044639;28;24439;-76
2022/01/24 06:40:49;;;;;;;13.70;11.07;;;;;;;-3.03;100.00;97284.75;5035864;28;24798;-75
2022/01/24 06:43:17;;;;;;;17.38;11.45;;;;;;;-3.22;100.00;97276.03;5034885;28;24435;-76
2022/01/24 06:45:44;;;;;;;12.95;10.45;;;;;;;-3.36;100.00;97275.81;5048763;28;24431;-75
2022/01/24 06:48:10;;;;;;;11.82;9.30;;;;;;;-3.54;100.00;97280.56;5056514;28;24435;-75
2022/01/24 06:50:38;;;;;;;10.57;8.95;;;;;;;-3.49;100.00;97278.97;5055586;28;24497;-75
2022/01/24 06:53:04;;;;;;;10.80;8.50;;;;;;;-3.37;100.00;97274.09;5044285;28;24436;-75
2022/01/24 06:55:31;;;;;;;10.32;8.23;;;;;;;-3.28;100.00;97274.22;5033469;28;24466;-74
2022/01/24 06:57:58;;;;;;;9.73;8.48;;;;;;;-3.09;100.00;97292.25;5033081;28;24961;-74
2022/01/24 07:00:29;;;;;;;9.45;7.93;;;;;;;-2.98;100.00;97296.66;5049244;28;24502;-76
2022/01/24 07:02:56;;;;;;;9.43;7.90;;;;;;;-3.01;100.00;97300.81;5054838;28;24776;-77
2022/01/24 07:05:22;;;;;;;11.23;8.95;;;;;;;-3.07;100.00;97293.13;5056611;28;24431;-77
2022/01/24 07:07:49;;;;;;;10.50;8.73;;;;;;;-3.11;100.00;97304.06;5051112;28;24447;-77
2022/01/24 07:10:15;;;;;;;8.98;8.05;;;;;;;-3.09;100.00;97303.25;5035573;28;24502;-76
2022/01/24 07:12:42;;;;;;;8.77;7.68;;;;;;;-3.04;100.00;97303.31;5034936;28;24960;-77
2022/01/24 07:15:13;;;;;;;9.68;7.78;;;;;;;-2.98;100.00;97298.34;5044035;28;24432;-77
2022/01/24 07:18:01;;;;;;;13.00;9.50;;;;;;;-2.89;100.00;97298.47;5034142;28;24430;-75
2022/01/24 07:20:27;;;;;;;11.23;10.03;;;;;;;-2.84;100.00;97304.47;5033100;28;24944;-73
2022/01/24 07:22:54;;;;;;;12.63;10.57;;;;;;;-2.86;100.00;97298.50;5032861;28;24536;-76
2022/01/24 07:25:21;;;;;;;15.05;13.52;;;;;;;-2.87;100.00;97304.41;5032230;28;24423;-75
2022/01/24 07:27:48;;;;;;;16.13;14.50;;;;;;;-2.77;100.00;97302.88;5032254;28;24870;-74
2022/01/24 07:30:14;;;;;;;14.10;12.70;;;;;;;-2.74;100.00;97301.22;5042055;28;24447;-75
2022/01/24 07:32:42;;;;;;;10.13;8.85;;;;;;;-2.57;100.00;97310.72;5052208;28;25033;-73
2022/01/24 07:35:10;;;;;;;11.40;9.88;;;;;;;-2.60;100.00;97309.00;5050660;28;25044;-75
2022/01/24 07:37:36;;;;;;;10.47;9.37;;;;;;;-2.49;100.00;97310.00;5060382;28;24953;-76
2022/01/24 07:40:06;;;;;;;9.52;8.52;;;;;;;-2.50;100.00;97307.44;5066115;28;24428;-73
2022/01/24 07:42:52;;;;;;;9.55;7.63;;;;;;;-2.34;100.00;97311.88;5053696;28;24888;-74
2022/01/24 07:45:20;;;;;;;9.10;7.85;;;;;;;-2.33;100.00;97326.28;5046617;28;24434;-74
2022/01/24 07:47:48;;;;;;;10.13;8.20;;;;;;;-2.16;100.00;97321.41;5062542;28;24515;-74
2022/01/24 07:50:15;;;;;;;11.68;9.45;;;;;;;-1.96;100.00;97319.94;5071446;28;24801;-73
2022/01/24 07:52:42;;;;;;;12.20;9.63;;;;;;;-1.79;100.00;97312.50;5069598;28;24426;-74
2022/01/24 07:55:09;;;;;;;18.83;12.20;;;;;;;-1.72;100.00;97314.25;5051458;28;24423;-76
2022/01/24 07:57:35;;;;;;;14.73;10.43;;;;;;;-1.76;100.00;97322.69;5051351;28;24431;-72
2022/01/24 08:00:02;;;;;;;13.50;10.67;;;;;;;-1.76;100.00;97316.75;5050909;28;24423;-74
2022/01/24 08:02:28;;;;;;;13.50;10.90;;;;;;;-1.64;100.00;97316.88;5051717;28;24441;-74
2022/01/24 08:04:56;;;;;;;21.33;12.30;;;;;;;-1.49;100.00;97318.72;5052393;28;24432;-74
2022/01/24 08:07:22;;;;;;;15.57;11.90;;;;;;;-1.37;100.00;97317.97;5062662;28;24435;-75
2022/01/24 08:09:49;;;;;;;17.40;12.97;;;;;;;-1.18;100.00;97313.91;5059152;28;24498;-74
2022/01/24 08:12:17;;;;;;;16.08;13.13;;;;;;;-1.01;100.00;97317.41;5051300;28;24415;-74
2022/01/24 08:14:43;;;;;;;16.38;13.25;;;;;;;-0.83;100.00;97316.69;5050776;28;24442;-74
2022/01/24 08:17:10;;;;;;;20.67;14.25;;;;;;;-0.65;100.00;97318.50;5050853;28;24437;-74
2022/01/24 08:19:36;;;;;;;15.82;13.70;;;;;;;-0.61;100.00;97323.63;5051354;28;24423;-74
2022/01/24 08:22:05;;;;;;;19.45;14.95;;;;;;;-0.47;100.00;97317.78;5051088;28;24549;-74
2022/01/24 08:24:31;;;;;;;21.05;16.55;;;;;;;-0.43;100.00;97322.03;5050136;28;24435;-75
2022/01/24 08:26:58;;;;;;;17.23;14.15;;;;;;;-0.45;100.00;97323.69;5050832;28;24484;-75
2022/01/24 08:29:26;;;;;;;24.98;17.08;;;;;;;-0.38;100.00;97325.44;5050449;28;24975;-77
2022/01/24 08:31:52;;;;;;;18.50;13.85;;;;;;;-0.12;100.00;97334.03;5050984;28;24944;-75
2022/01/24 08:34:19;;;;;;;16.43;13.73;;;;;;;-0.17;100.00;97330.63;5050992;28;24412;-74
2022/01/24 08:36:47;;;;;;;18.17;14.23;;;;;;;-0.19;100.00;97328.91;5050643;28;24426;-75
2022/01/24 08:39:14;;;;;;;15.52;12.68;;;;;;;-0.43;100.00;97334.75;5050846;28;24437;-74
2022/01/24 08:41:49;;;;;;;16.65;12.50;;;;;;;-0.39;100.00;97332.22;5051121;28;24414;-75
2022/01/24 08:44:21;;;;;;;16.48;11.98;;;;;;;-0.46;100.00;97325.41;5050854;28;24944;-75
2022/01/24 08:46:48;;;;;;;13.98;11.73;;;;;;;-0.45;100.00;97326.25;5050811;28;24979;-74
2022/01/24 08:49:15;;;;;;;13.80;12.10;;;;;;;-0.43;100.00;97322.88;5050840;28;24415;-74
2022/01/24 08:51:42;;;;;;;18.50;14.70;;;;;;;-0.48;100.00;97327.09;5050798;28;24453;-75
2022/01/24 08:54:10;;;;;;;17.02;13.73;;;;;;;-0.45;100.00;97323.69;5050446;28;24431;-75
2022/01/24 08:56:37;;;;;;;18.02;12.65;;;;;;;-0.34;100.00;97317.81;5050099;28;24566;-74
2022/01/24 08:59:05;;;;;;;17.80;15.60;;;;;;;-0.46;100.00;97322.84;5050758;28;24491;-74
2022/01/24 09:01:32;;;;;;;23.67;17.85;;;;;;;-0.30;100.00;97328.88;5050607;28;24518;-75
2022/01/24 09:03:59;;;;;;;21.65;17.40;;;;;;;-0.29;100.00;97333.13;5050354;28;24493;-74
2022/01/24 09:06:27;;;;;;;20.10;16.67;;;;;;;-0.34;100.00;97324.59;5049822;28;24438;-75
2022/01/24 09:08:57;;;;;;;22.37;15.87;;;;;;;-0.30;100.00;97331.41;5051046;28;24821;-75
2022/01/24 09:11:24;;;;;;;18.83;15.93;;;;;;;0.01;100.00;97327.31;5050522;28;24462;-76
2022/01/24 09:13:52;;;;;;;18.33;15.55;;;;;;;0.07;100.00;97329.88;5050209;28;25043;-76
2022/01/24 09:16:19;;;;;;;18.92;14.88;;;;;;;0.20;100.00;97326.53;5050174;28;24489;-75
2022/01/24 09:18:45;;;;;;;15.90;13.43;;;;;;;0.33;100.00;97326.53;5050895;28;24446;-76
2022/01/24 09:21:12;;;;;;;14.27;12.73;;;;;;;0.26;100.00;97329.91;5050550;28;24422;-76
2022/01/24 09:23:38;;;;;;;14.35;12.85;;;;;;;0.55;100.00;97330.84;5050144;28;24979;-76
2022/01/24 09:26:05;;;;;;;14.75;12.32;;;;;;;0.54;100.00;97338.50;5050719;28;24781;-75
2022/01/24 09:28:31;;;;;;;13.23;11.77;;;;;;;0.55;100.00;97332.53;5050759;28;24426;-75
2022/01/24 09:30:59;;;;;;;12.75;11.45;;;;;;;0.55;100.00;97328.28;5050119;28;24470;-75
2022/01/24 09:33:26;;;;;;;15.07;11.25;;;;;;;0.68;100.00;97327.47;5050393;28;24975;-75
2022/01/24 09:35:58;;;;;;;13.30;11.40;;;;;;;0.84;100.00;97330.03;5053005;28;25014;-75
2022/01/24 09:38:25;;;;;;;13.32;11.10;;;;;;;0.55;100.00;97328.28;5054014;28;25044;-75
2022/01/24 09:40:53;;;;;;;13.52;11.20;;;;;;;0.81;100.00;97323.22;5055124;28;24422;-75
2022/01/24 09:43:19;;;;;;;13.27;10.75;;;;;;;0.88;100.00;97331.72;5054526;28;24435;-75
2022/01/24 09:45:47;;;;;;;12.65;11.38;;;;;;;0.83;100.00;97315.56;5052448;28;25030;-75
2022/01/24 09:48:16;;;;;;;13.25;11.70;;;;;;;0.86;100.00;97320.69;5053357;28;24527;-75
2022/01/24 09:50:43;;;;;;;16.00;11.57;;;;;;;0.94;100.00;97322.38;5053128;28;24491;-76
2022/01/24 09:53:10;;;;;;;16.13;10.07;;;;;;;0.93;100.00;97324.94;5053242;28;24432;-75
2022/01/24 09:55:36;;;;;;;12.10;10.43;;;;;;;0.92;100.00;97333.41;5052707;28;24999;-76
2022/01/24 09:58:03;;;;;;;17.73;10.93;;;;;;;0.95;100.00;97326.63;5053044;28;24439;-75
2022/01/24 10:00:29;;;;;;;13.57;10.95;;;;;;;0.95;100.00;97321.50;5052454;28;24447;-75
2022/01/24 10:02:57;;;;;;;13.90;10.85;;;;;;;1.34;100.00;97331.72;5053122;28;24865;-74
2022/01/24 10:05:28;;;;;;;13.32;10.23;;;;;;;1.59;100.00;97325.69;5053159;28;24444;-74
2022/01/24 10:07:56;;;;;;;12.52;10.57;;;;;;;2.03;100.00;97326.38;5051892;28;24435;-74
2022/01/24 10:10:28;;;;;;;13.23;9.65;;;;;;;2.35;100.00;97321.97;5053368;28;24458;-74
2022/01/24 10:18:27;;;;;;;11.98;9.43;;;;;;;2.17;100.00;97319.50;5049931;28;24485;-75
2022/01/24 10:20:55;;;;;;;12.63;8.85;;;;;;;2.32;100.00;97306.66;5052063;28;24434;-74
2022/01/24 10:23:26;;;;;;;9.93;8.93;;;;;;;2.37;100.00;97302.38;5052078;28;24435;-75
2022/01/24 10:25:59;;;;;;;10.63;8.90;;;;;;;2.79;100.00;97305.50;5052373;28;24471;-75
2022/01/24 10:28:30;;;;;;;12.38;9.43;;;;;;;3.14;100.00;97309.47;5052752;28;24790;-74
2022/01/24 10:31:06;;;;;;;10.90;9.50;;;;;;;3.23;100.00;97300.88;5052467;28;24454;-74
2022/01/24 10:33:51;;;;;;;9.73;8.73;;;;;;;3.38;100.00;97303.28;5052346;28;24439;-74
2022/01/24 10:36:28;;;;;;;10.02;8.57;;;;;;;3.50;100.00;97304.84;5052030;28;24474;-74
2022/01/24 10:39:11;;;;;;;9.80;8.27;;;;;;;3.89;99.29;97303.53;5051976;28;24442;-74
2022/01/24 10:41:54;;;;;;;10.38;8.55;;;;;;;4.09;98.63;97300.75;5050232;28;24431;-74
2022/01/24 10:44:28;;;;;;;11.68;8.15;;;;;;;3.83;98.50;97296.78;5038467;28;24451;-74
2022/01/24 10:47:12;;;;;;;8.93;7.80;;;;;;;3.85;98.06;97294.19;5050818;28;24439;-74
2022/01/24 10:49:39;;;;;;;8.50;7.68;;;;;;;4.08;99.33;97296.50;5043658;28;24438;-74
2022/01/24 10:52:14;;;;;;;9.60;8.68;;;;;;;4.09;97.43;97288.78;5051268;28;24454;-74
2022/01/24 10:54:41;;;;;;;10.10;8.18;;;;;;;4.47;99.17;97289.13;5052482;28;24436;-74
2022/01/24 10:57:07;;;;;;;9.93;8.07;;;;;;;4.55;95.42;97280.44;5051314;28;24489;-74
2022/01/24 10:59:36;;;;;;;8.15;7.45;;;;;;;4.63;93.07;97280.31;5046973;28;24984;-76
2022/01/24 11:02:03;;;;;;;10.27;7.80;;;;;;;4.67;96.17;97279.41;5049696;28;24534;-76
2022/01/24 11:04:33;;;;;;;8.70;7.85;;;;;;;4.68;95.74;97267.44;5047511;28;25034;-75
2022/01/24 11:07:02;;;;;;;9.40;7.75;;;;;;;5.13;94.84;97267.56;5040405;28;24474;-76
2022/01/24 11:09:31;;;;;;;9.13;7.85;;;;;;;5.00;90.99;97269.47;5047909;28;24445;-76
2022/01/24 11:12:01;;;;;;;11.45;8.52;;;;;;;4.96;90.79;97258.41;5051435;28;24992;-76
2022/01/24 11:14:31;;;;;;;8.43;7.55;;;;;;;4.78;92.11;97274.09;5047473;28;24478;-73
2022/01/24 11:16:59;;;;;;;8.27;7.47;;;;;;;5.01;92.54;97260.91;5046196;28;24450;-75
2022/01/24 11:19:31;;;;;;;9.10;8.02;;;;;;;5.12;93.26;97260.69;5051506;28;24988;-74
2022/01/24 11:22:00;;;;;;;13.73;7.70;;;;;;;5.02;92.23;97260.88;5051392;28;24447;-75
2022/01/24 11:24:37;;;;;;;8.55;7.38;;;;;;;4.84;93.65;97262.03;5046079;28;24545;-74
2022/01/24 11:27:06;;;;;;;9.13;8.07;;;;;;;4.83;93.57;97257.78;5051478;28;24485;-73
2022/01/24 11:29:34;;;;;;;9.55;8.02;;;;;;;5.16;94.59;97254.66;5050833;28;24439;-74
2022/01/24 11:32:11;;;;;;;8.32;7.47;;;;;;;5.15;94.58;97260.66;5051497;28;24458;-74
2022/01/24 11:34:39;;;;;;;9.55;7.93;;;;;;;4.94;94.78;97265.31;5051248;28;25004;-74
2022/01/24 11:37:08;;;;;;;10.40;8.80;;;;;;;4.70;95.99;97257.97;5050655;28;24448;-75
2022/01/24 11:39:36;;;;;;;10.02;8.25;;;;;;;4.88;95.72;97260.25;5042623;28;24440;-74
2022/01/24 11:42:05;;;;;;;9.00;8.10;;;;;;;4.77;97.84;97265.56;5051405;28;24438;-74
2022/01/24 11:44:49;;;;;;;9.48;8.45;;;;;;;4.58;95.62;97259.88;5046869;28;24494;-73
2022/01/24 11:47:24;;;;;;;9.38;8.35;;;;;;;4.41;96.82;97258.41;5050549;28;24443;-74
2022/01/24 11:49:53;;;;;;;9.68;8.32;;;;;;;4.41;100.00;97251.56;5051213;28;24801;-73
2022/01/24 11:52:21;;;;;;;9.52;8.50;;;;;;;4.65;98.94;97254.66;5050875;28;24458;-74
2022/01/24 11:54:53;;;;;;;10.00;9.00;;;;;;;4.38;100.00;97256.78;5052818;28;24489;-72
2022/01/24 11:57:25;;;;;;;12.27;9.23;;;;;;;4.60;98.05;97253.00;5050146;28;24537;-72
2022/01/24 11:59:52;;;;;;;9.48;8.30;;;;;;;4.54;97.83;97260.78;5055042;28;24457;-75
2022/01/24 12:02:24;;;;;;;9.60;8.27;;;;;;;4.78;98.11;97259.56;5055150;28;24428;-73
2022/01/24 12:04:55;;;;;;;9.15;7.22;;;;;;;4.69;96.13;97258.88;5047854;28;24438;-74
2022/01/24 12:07:24;;;;;;;9.73;7.57;;;;;;;4.58;99.67;97249.59;5065624;28;24442;-74
2022/01/24 12:09:51;;;;;;;8.48;7.63;;;;;;;4.66;99.01;97251.22;5064024;28;24438;-74
2022/01/24 12:12:47;;;;;;;8.60;7.75;;;;;;;4.74;98.20;97251.94;5069091;28;24447;-74
2022/01/24 12:15:47;;;;;;;9.43;7.93;;;;;;;4.79;97.54;97252.72;5049195;28;24971;-74
2022/01/24 12:18:29;;;;;;;9.60;7.97;;;;;;;4.70;95.11;97250.28;5061361;28;24821;-74
2022/01/24 12:20:57;;;;;;;10.20;7.57;;;;;;;4.64;98.79;97251.25;5059699;28;24448;-74
2022/01/24 12:23:33;;;;;;;9.27;7.57;;;;;;;4.70;96.21;97253.69;5050935;28;24438;-75
2022/01/24 12:26:03;;;;;;;8.80;8.00;;;;;;;4.70;99.88;97247.72;5049980;28;24832;-75
2022/01/24 12:28:32;;;;;;;10.48;9.48;;;;;;;4.67;99.90;97255.47;5050531;28;24447;-74
2022/01/24 12:31:00;;;;;;;9.98;9.00;;;;;;;4.68;98.83;97245.19;5049429;28;24439;-75
2022/01/24 12:33:32;;;;;;;9.90;8.97;;;;;;;4.49;97.76;97249.75;5050135;28;24988;-75